Decoded Metar for KEAU (EAU CLAIRE in WI, USA) (IATA:EAU) | Meteo·Mobile Aviation Weather
aviador You're here:

KEAU Decoded Metar

EAU CLAIRE in WI, USA
Report Time2018-10-20 19:56:00
UTC Time2018-10-20 21:00:04
Flight Rules vfr VFR
Wind340° at 14 Gusting to 24 kt
W.Decomp.*RWY 32: 13.2 kt HW 4.6 kt RCW
RWY 04: 6.8 kt HW 12.2 kt LCW
W.Rank340° ranks 20
Current wind is above 340° avg. (7.4)
Visibility9999 m
Phenomena:N/A
Clouds:Few 060 Hf
Expected CloudBase > 6,000 ft AGL from Temp-Dew spread
CeilingNone
Temp06°C (ISA -7)
Dew Point-9°C (34% RH)
AAT-2.0°C
QNH1022 hPa
Density Alt-217 ft
Elevation906 ft
Report Wrong Elevation
Raw Report
KEAU 201956Z 34014G24KT 10SM FEW060 06/M09 A3018 RMK AO2 PK WND
35029/1912 SLP227 T00561089=

Extra information for KEAU:More info

Metar Taf Metar & Taf Last 4 Metars F.Rules Stats Wind Profile Meteogram Temp Stats Airport Information Weather charts Add Link Nearby VenuesMetar ALERT Operation Metar Decoded Social comments

AIRNAV info for KEAU